Ana Sayfa
METAR-TAF:

METAR-TAF

Havaalanları :

Guiyang, Çin

Enlem: 26-32-19N, Boylam: 106-48-03E, yükseklik: 1139 m

Güncel hava durumu gözlemi

Rapor saat 08:00 UTC de 56 dakika önce yapıldı.
Rüzgar kuzey/kuzeydoğudan 8 kt
Sıcaklık 8°C
Nem 53%
Basınç 1028 hPa
Görüş mesafesi 10 km veya daha fazla
4600 ft yükseklikte çok bulutlu

METAR: ZUGY 170800Z 03004MPS 9999 OVC046 08/M01 Q1028 NOSIG

Saat: 16:56 (08:56 UTC)

Tahmin

Rapor saat 02:04 UTC de 6 saat ve 52 dakika önce yapıldı.
Ayın 17'si saat 06 UTC'den ayın 18'si saat 06 UTC'ye kadar geçerli Tahmin
Rüzgar doğu/kuzeydoğudan 6 kt
Görüş mesafesi: 6000 m
3300 ft yükseklikte parçalı çok bulutlu

TAF: ZUGY 170204Z 1706/1806 06003MPS 6000 BKN033 TX10/1806Z TN03/1722Z

4.000'den fazla havaalanı için hava durumu gözlemleri ve tahminleri (METAR ve TAF raporları).

Kullanılabilir istasyonlar harita üzerinde sarı ve kırmızı noktalarla gösterilir.

İstasyonun adını görmek için fareyi noktanın üzerinde gezdirin.

Sonrasında hava gözlem ve tahminlerini görmek için tıklayın.

Haritayı değiştirmek için: yaklaştırmak için siyah artı işaretli yeşil düğmeye ve uzaklaştırmak için de eksi işaretli düğmeye hızla tıklayın; bitişik haritalar için yeşil okları kullanın.


METAR-TAF: